Terminal Aerodrome Forecast
Issued by NWS Upton, NY

Current Version | Previous Version | Text Only | Print | Product List | Glossary On
Versions: 1 2 3 4 5 6 7 8 9 10 11 12 13 14 15 16 17 18 19 20 21 22 23 24 25 26 27 28 29 30 31 32 33 34 35 36 37 38
089
FTUS41 KOKX 231239 AAA
TAFJFK
TAF AMD
KJFK 231239Z 2313/2418 06023G36KT P6SM -DZ OVC020
     FM231500 06030G42KT 6SM -DZ BR OVC014
     FM232000 06031G50KT 3SM RA BR OVC010
     FM240100 05022G42KT 1 1/2SM +RA OVC006
     FM240800 02019G28KT 2SM RA BR OVC006
     FM241400 01015G22KT 3SM -RA BR OVC008=

USA.gov is the U.S. government's official web portal to all federal, state and local government web resources and services.